createdAt,value
2022-09-14T00:00:08.538Z,58.36
2022-09-14T00:05:07.967Z,58.39
2022-09-14T00:10:07.633Z,58.4
2022-09-14T00:15:08.352Z,58.39
2022-09-14T00:20:08.068Z,58.4
2022-09-14T00:25:07.749Z,58.42
2022-09-14T00:30:08.499Z,58.4
2022-09-14T00:35:08.211Z,58.39
2022-09-14T00:40:07.934Z,58.43
2022-09-14T00:45:17.683Z,58.42
2022-09-14T00:50:08.399Z,58.41
2022-09-14T00:55:08.101Z,58.42
2022-09-14T01:00:07.797Z,58.42
2022-09-14T01:05:08.516Z,58.44
2022-09-14T01:10:08.301Z,58.44
2022-09-14T01:15:08.009Z,58.44
2022-09-14T01:20:07.683Z,58.45
2022-09-14T01:25:08.438Z,58.45
2022-09-14T01:30:08.153Z,58.47
2022-09-14T01:35:15.821Z,58.46
2022-09-14T01:40:07.912Z,58.46
2022-09-14T01:45:07.692Z,58.47
2022-09-14T01:50:08.400Z,58.48
2022-09-14T01:55:08.131Z,58.47
2022-09-14T02:00:07.845Z,58.5
2022-09-14T02:05:08.545Z,58.51
2022-09-14T02:10:08.276Z,58.51
2022-09-14T02:15:07.986Z,58.5
2022-09-14T02:20:07.729Z,58.52
2022-09-14T02:25:08.438Z,58.53
2022-09-14T02:30:08.133Z,58.53
2022-09-14T02:35:07.820Z,58.54
2022-09-14T02:40:08.589Z,58.54
2022-09-14T02:45:08.368Z,58.55
2022-09-14T02:50:08.226Z,58.57
2022-09-14T02:55:07.931Z,58.55
2022-09-14T03:00:08.647Z,58.55
2022-09-14T03:05:08.323Z,58.57
2022-09-14T03:10:08.011Z,58.6
2022-09-14T03:15:07.679Z,58.59
2022-09-14T03:20:08.359Z,58.6
2022-09-14T03:25:08.060Z,58.61
2022-09-14T03:30:07.760Z,58.63
2022-09-14T03:35:08.460Z,58.67
2022-09-14T03:40:08.289Z,58.67
2022-09-14T03:45:08.038Z,58.67
2022-09-14T03:50:07.713Z,58.68
2022-09-14T03:55:08.436Z,58.72
2022-09-14T04:00:08.145Z,58.73
2022-09-14T04:05:02.156Z,58.74
2022-09-14T04:10:02.006Z,58.74
2022-09-14T04:15:02.081Z,58.76
2022-09-14T04:20:02.048Z,58.8
2022-09-14T04:25:02.096Z,58.79
2022-09-14T04:30:01.857Z,58.83
2022-09-14T04:35:02.678Z,58.83
2022-09-14T04:40:02.979Z,58.86
2022-09-14T04:45:01.955Z,58.9
2022-09-14T04:50:01.752Z,58.93
2022-09-14T04:55:02.625Z,58.95
2022-09-14T05:00:02.433Z,58.96
2022-09-14T05:05:02.261Z,58.96
2022-09-14T05:10:02.086Z,58.97
2022-09-14T05:15:01.961Z,59.02
2022-09-14T05:20:01.964Z,59.04
2022-09-14T05:25:01.930Z,59.04
2022-09-14T05:30:02.847Z,59.07
2022-09-14T05:35:02.684Z,59.09
2022-09-14T05:40:02.653Z,59.09
2022-09-14T05:45:02.684Z,59.12
2022-09-14T05:50:02.635Z,59.16
2022-09-14T05:55:02.962Z,59.18
2022-09-14T06:00:01.896Z,59.2
2022-09-14T06:05:02.878Z,59.19
2022-09-14T06:10:02.835Z,59.24
2022-09-14T06:15:02.955Z,59.23
2022-09-14T06:20:04.847Z,59.27
2022-09-14T06:25:02.069Z,59.27
2022-09-14T06:30:02.096Z,59.31
2022-09-14T06:35:02.248Z,59.31
2022-09-14T06:40:02.506Z,59.31
2022-09-14T06:45:02.443Z,59.33
2022-09-14T06:50:02.277Z,59.33
2022-09-14T06:55:02.082Z,59.34
2022-09-14T07:00:02.783Z,59.37
2022-09-14T07:05:02.563Z,59.37
2022-09-14T07:10:02.436Z,59.38
2022-09-14T07:15:02.316Z,59.39
2022-09-14T07:20:02.227Z,59.4
2022-09-14T07:25:02.066Z,59.4
2022-09-14T07:30:01.910Z,59.43
2022-09-14T07:35:02.888Z,59.4
2022-09-14T07:40:02.760Z,59.41
2022-09-14T07:45:06.223Z,59.44
2022-09-14T07:50:02.364Z,59.42
2022-09-14T07:55:02.213Z,59.42
2022-09-14T08:00:02.026Z,59.45
2022-09-14T08:05:01.983Z,59.41
2022-09-14T08:10:01.865Z,59.41
2022-09-14T08:15:02.717Z,59.44
2022-09-14T08:20:02.554Z,59.41
2022-09-14T08:25:02.532Z,59.42
2022-09-14T08:30:02.396Z,59.43
2022-09-14T08:35:02.287Z,59.44
2022-09-14T08:40:02.211Z,59.44
2022-09-14T08:45:06.244Z,59.46
2022-09-14T08:50:01.778Z,59.45
2022-09-14T08:55:02.734Z,59.45
2022-09-14T09:00:02.745Z,59.48
2022-09-14T09:05:12.759Z,59.49
2022-09-14T09:10:02.760Z,59.5
2022-09-14T09:15:02.744Z,59.5
2022-09-14T09:20:02.620Z,59.51
2022-09-14T09:25:02.545Z,59.5
2022-09-14T09:30:02.363Z,59.49
2022-09-14T09:35:02.266Z,59.52
2022-09-14T09:40:02.113Z,59.54
2022-09-14T09:45:03.945Z,59.53
2022-09-14T09:50:02.090Z,59.54
2022-09-14T09:55:01.939Z,59.54
2022-09-14T10:00:02.717Z,59.53
2022-09-14T10:05:12.494Z,59.51
2022-09-14T10:10:02.373Z,59.53
2022-09-14T10:15:02.213Z,59.56
2022-09-14T10:20:02.049Z,59.55
2022-09-14T10:25:01.995Z,59.55
2022-09-14T10:30:01.969Z,59.55
2022-09-14T10:35:01.798Z,59.57
2022-09-14T10:40:02.758Z,59.57
2022-09-14T10:45:02.590Z,59.54
2022-09-14T10:50:12.421Z,59.55
2022-09-14T10:55:02.247Z,59.56
2022-09-14T11:00:02.086Z,59.54
2022-09-14T11:05:02.044Z,59.56
2022-09-14T11:10:01.867Z,59.55
2022-09-14T11:15:02.700Z,59.54
2022-09-14T11:20:02.577Z,59.53
2022-09-14T11:25:02.361Z,59.55
2022-09-14T11:30:02.220Z,59.54
2022-09-14T11:35:02.128Z,59.55
2022-09-14T11:40:02.130Z,59.57
2022-09-14T11:45:02.048Z,59.57
2022-09-14T11:50:01.921Z,59.61
2022-09-14T11:55:02.973Z,59.6
2022-09-14T12:00:01.858Z,59.62
2022-09-14T12:05:06.277Z,59.64
2022-09-14T12:10:02.209Z,59.63
2022-09-14T12:15:02.047Z,59.66
2022-09-14T12:20:01.852Z,59.7
2022-09-14T12:25:02.602Z,59.69
2022-09-14T12:30:02.452Z,59.7
2022-09-14T12:35:02.260Z,59.71
2022-09-14T12:40:02.056Z,59.71
2022-09-14T12:45:01.832Z,59.7
2022-09-14T12:50:02.685Z,59.68
2022-09-14T12:55:02.503Z,59.7
2022-09-14T13:00:02.229Z,59.7
2022-09-14T13:05:02.102Z,59.71
2022-09-14T13:10:01.945Z,59.71
2022-09-14T13:15:01.704Z,59.7
2022-09-14T13:20:02.521Z,59.72
2022-09-14T13:25:02.309Z,59.73
2022-09-14T13:30:12.108Z,59.73
2022-09-14T13:35:01.840Z,59.78
2022-09-14T13:40:02.702Z,59.8
2022-09-14T13:45:02.532Z,59.8
2022-09-14T13:50:02.397Z,59.84
2022-09-14T13:55:02.219Z,59.85
2022-09-14T14:00:12.029Z,59.86
2022-09-14T14:05:01.882Z,59.89
2022-09-14T14:10:02.780Z,59.9
2022-09-14T14:15:02.757Z,59.89
2022-09-14T14:20:02.732Z,59.9
2022-09-14T14:25:13.252Z,59.92
2022-09-14T14:30:01.980Z,59.91
2022-09-14T14:35:01.926Z,59.93
2022-09-14T14:40:02.984Z,59.93
2022-09-14T14:45:01.944Z,59.93
2022-09-14T14:50:01.986Z,59.96
2022-09-14T14:55:01.785Z,59.94
2022-09-14T15:00:02.646Z,59.94
2022-09-14T15:05:02.456Z,59.97
2022-09-14T15:10:02.221Z,59.94
2022-09-14T15:15:02.015Z,59.94
2022-09-14T15:20:01.843Z,59.95
2022-09-14T15:25:02.642Z,59.96
2022-09-14T15:30:02.620Z,59.97
2022-09-14T15:35:02.367Z,59.95
2022-09-14T15:40:02.212Z,59.97
2022-09-14T15:45:02.027Z,59.99
2022-09-14T15:50:01.841Z,59.97
2022-09-14T15:55:02.736Z,59.96
2022-09-14T16:00:02.653Z,59.99
2022-09-14T16:05:02.468Z,59.98
2022-09-14T16:10:02.285Z,60.01
2022-09-14T16:15:02.116Z,60.0
2022-09-14T16:20:02.048Z,60.01
2022-09-14T16:25:01.880Z,60.02
2022-09-14T16:30:02.751Z,60.0
2022-09-14T16:35:07.260Z,60.04
2022-09-14T16:40:01.873Z,60.03
2022-09-14T16:45:02.661Z,60.04
2022-09-14T16:50:02.505Z,60.06
2022-09-14T16:55:02.309Z,60.05
2022-09-14T17:00:02.232Z,60.07
2022-09-14T17:05:02.167Z,60.1
2022-09-14T17:10:02.054Z,60.12
2022-09-14T17:15:02.080Z,60.12
2022-09-14T17:20:02.145Z,60.15
2022-09-14T17:25:02.075Z,60.17
2022-09-14T17:30:02.164Z,60.18
2022-09-14T17:35:01.960Z,60.23
2022-09-14T17:40:01.977Z,60.26
2022-09-14T17:45:01.835Z,60.28
2022-09-14T17:50:02.666Z,60.3
2022-09-14T17:55:02.485Z,60.36
2022-09-14T18:00:02.378Z,60.37
2022-09-14T18:05:02.156Z,60.4
2022-09-14T18:10:01.978Z,60.41
2022-09-14T18:15:01.831Z,60.46
2022-09-14T18:20:02.644Z,60.49
2022-09-14T18:25:02.480Z,60.51
2022-09-14T18:30:02.416Z,60.52
2022-09-14T18:35:02.264Z,60.55
2022-09-14T18:40:02.143Z,60.59
2022-09-14T18:45:02.036Z,60.61
2022-09-14T18:50:01.840Z,60.64
2022-09-14T18:55:02.677Z,60.64
2022-09-14T19:00:02.550Z,60.69
2022-09-14T19:05:02.439Z,60.68
2022-09-14T19:10:02.319Z,60.71
2022-09-14T19:15:02.116Z,60.74
2022-09-14T19:20:04.802Z,60.76
2022-09-14T19:25:02.684Z,60.77
2022-09-14T19:30:02.520Z,60.78
2022-09-14T19:35:02.352Z,60.82
2022-09-14T19:40:02.357Z,60.83
2022-09-14T19:45:02.302Z,60.87
2022-09-14T19:50:02.272Z,60.87
2022-09-14T19:55:02.228Z,60.9
2022-09-14T20:00:02.117Z,60.91
2022-09-14T20:05:01.934Z,60.93
2022-09-14T20:10:02.806Z,60.97
2022-09-14T20:15:02.793Z,60.96
2022-09-14T20:20:02.677Z,60.97
2022-09-14T20:25:02.460Z,61.01
2022-09-14T20:30:02.323Z,61.04
2022-09-14T20:35:14.964Z,61.06
2022-09-14T20:40:07.741Z,61.07
2022-09-14T20:45:08.504Z,61.08
2022-09-14T20:50:08.203Z,61.11
2022-09-14T20:55:07.931Z,61.1
2022-09-14T21:00:08.627Z,61.13
2022-09-14T21:05:08.361Z,61.13
2022-09-14T21:10:08.073Z,61.16
2022-09-14T21:15:07.795Z,61.15
2022-09-14T21:20:08.498Z,61.18
2022-09-14T21:25:08.190Z,61.15
2022-09-14T21:30:07.898Z,61.17
2022-09-14T21:35:08.616Z,61.17
2022-09-14T21:40:08.405Z,61.19
2022-09-14T21:45:08.129Z,61.2
2022-09-14T21:50:07.820Z,61.2
2022-09-14T21:55:08.518Z,61.21
2022-09-14T22:00:08.296Z,61.16
2022-09-14T22:05:08.084Z,61.18
2022-09-14T22:10:07.817Z,61.16
2022-09-14T22:15:08.503Z,61.17
2022-09-14T22:20:08.238Z,61.16
2022-09-14T22:25:08.017Z,61.16
2022-09-14T22:30:07.733Z,61.16
2022-09-14T22:35:08.441Z,61.16
2022-09-14T22:40:08.182Z,61.17
2022-09-14T22:45:07.985Z,61.16
2022-09-14T22:50:07.683Z,61.16
2022-09-14T22:55:08.441Z,61.15
2022-09-14T23:01:00.844Z,61.14
2022-09-14T23:05:08.595Z,61.14
2022-09-14T23:10:08.161Z,61.14
2022-09-14T23:15:07.865Z,61.13
2022-09-14T23:20:08.561Z,61.15
2022-09-14T23:25:08.273Z,61.12
2022-09-14T23:30:07.979Z,61.14
2022-09-14T23:35:07.696Z,61.14
2022-09-14T23:40:08.467Z,61.13
2022-09-14T23:45:08.239Z,61.15
2022-09-14T23:50:07.963Z,61.14
2022-09-14T23:55:07.671Z,61.15
